Jaipur, India

11:24 AM IST on February 13, 2016 (GMT +0530)
Jaipur | | Change Station
CLOSE
Current Station
Airport
Location: Jaipur,
Elevation: 1280 ft
Nearby Weather Stations

Elev 1280 ft 26.82 °N, 75.81 °E | Updated 24 minutes ago

Haze
Haze
72 °F
Feels Like 72 °F
N
5
Wind Variable Wind from NW

Today
High -- | Low -- °F
--% Chance of Precip.
Yesterday
High -- | Low -- °F
Precip. -- in
Pressure 30.01 in
Visibility 1.2 miles
Clouds Few 10000 ft
Dew Point 37 °F
Humidity 29%
Rainfall 0.00 in
Snow Depth Not available.
7:05 AM 6:17 PM
Waxing Crescent, 27% visible
METAR VIJP 130530Z 31004KT 2000 HZ FEW100 22/03 Q1016 NOSIG
Pressure 30.01 in
Visibility 1.2 miles
Clouds Few 10000 ft
Dew Point 37 °F
Humidity 29%
Rainfall 0.00 in
Snow Depth Not available.
7:05 AM 6:17 PM
Waxing Crescent, 27% visible
METAR VIJP 130530Z 31004KT 2000 HZ FEW100 22/03 Q1016 NOSIG

10-Day Weather Forecast

No radar image for this location.
×

Almanac

Astronomy

Feb. 13, 2016 Rise Set
Actual Time
Civil Twilight
Nautical Twilight
Astronomical Twilight
Moon
Length of Visible Light
Length of Day
Tomorrow will be .
, % of the Moon is Illuminated

Today's Extremes

Country Highs Country Lows

Community

WunderPhotos

Upload Photos

1,892,507 photos uploaded!

WunderBlog® & News

Nearby

Air Quality

  Air Quality AQ Index Pollutant
Not available.

Snow Depth

Station Depth Elevation

Earthquake Activity

City Distance Mag. Time & Date
Minimum magnitude displayed is 2.5.

Coastal Water Temperatures

Place Temperature

Stations

Nearby Weather Stations

Station Location Temp. Windchill Dew Point Humidity Wind Precip. Elev Updated Type